CheckWX is a tool to help pilots better visualize weather data.  It is not intended as a substitute for an official pre-flight weather briefing.

17:09:59 UTC

KLBL METAR
Liberal Mid-America Regional Airport
Liberal, Kansas, USA
Current

1 hour ago

KLBL 211556Z AUTO 09010KT 10SM CLR 26/18 A3005 RMK AO2 SLP139 T02560183
Observed
Jul-21 @ 15:56 UTC
Wind
  • 090° at 10 KTS
Visibility
10 SM
Flight Rules
VFR
Cloud Levels
  • Clear skies
Temperature
26°C / 79°F
Dewpoint
18°C / 64°F
Humidity
61%
Altimeter
30.05" Hg
Pressure
1017.62 hPa
Previous

2 hours ago

KLBL 211456Z AUTO 07010KT 10SM CLR 25/19 A3005 RMK AO2 WSHFT 1343 SLP138 T02500189 51041
Observed
Jul-21 @ 14:56 UTC
Wind
  • 070° at 10 KTS
Visibility
10 SM
Flight Rules
VFR
Cloud Levels
  • Clear skies
Temperature
25°C / 77°F
Dewpoint
19°C / 66°F
Humidity
69%
Altimeter
30.05" Hg
Pressure
1017.62 hPa
Previous

3 hours ago

KLBL 211403Z AUTO 04009KT 10SM CLR 23/18 A3003 RMK AO2 WSHFT 1343
Observed
Jul-21 @ 14:03 UTC
Wind
  • 040° at 9 KTS
Visibility
10 SM
Flight Rules
VFR
Cloud Levels
  • Clear skies
Temperature
23°C / 73°F
Dewpoint
18°C / 64°F
Humidity
74%
Altimeter
30.03" Hg
Pressure
1016.92 hPa